sensor_id;sensor_type;location;lat;lon;timestamp;P1;durP1;ratioP1;P2;durP2;ratioP2
2772;SDS011;1394;47.044;15.744;2023-08-21T00:01:51;26.23;;;4.00;;
2772;SDS011;1394;47.044;15.744;2023-08-21T00:04:19;26.00;;;4.00;;
2772;SDS011;1394;47.044;15.744;2023-08-21T00:06:46;26.10;;;4.00;;
2772;SDS011;1394;47.044;15.744;2023-08-21T00:09:15;26.27;;;3.87;;
2772;SDS011;1394;47.044;15.744;2023-08-21T00:11:42;26.73;;;3.97;;
2772;SDS011;1394;47.044;15.744;2023-08-21T00:14:11;26.23;;;4.07;;
2772;SDS011;1394;47.044;15.744;2023-08-21T00:16:38;27.60;;;3.90;;
2772;SDS011;1394;47.044;15.744;2023-08-21T00:19:06;26.10;;;3.93;;
2772;SDS011;1394;47.044;15.744;2023-08-21T00:21:35;26.50;;;4.30;;
2772;SDS011;1394;47.044;15.744;2023-08-21T00:24:02;25.70;;;3.70;;
2772;SDS011;1394;47.044;15.744;2023-08-21T00:26:30;26.00;;;3.97;;
2772;SDS011;1394;47.044;15.744;2023-08-21T00:28:57;26.80;;;4.90;;
2772;SDS011;1394;47.044;15.744;2023-08-21T00:31:29;26.13;;;4.57;;
2772;SDS011;1394;47.044;15.744;2023-08-21T00:33:56;27.03;;;4.53;;
2772;SDS011;1394;47.044;15.744;2023-08-21T00:36:23;26.97;;;4.43;;
2772;SDS011;1394;47.044;15.744;2023-08-21T00:38:50;26.20;;;4.33;;
2772;SDS011;1394;47.044;15.744;2023-08-21T00:41:18;26.57;;;4.33;;
2772;SDS011;1394;47.044;15.744;2023-08-21T00:43:46;27.40;;;4.20;;
2772;SDS011;1394;47.044;15.744;2023-08-21T00:46:14;26.10;;;4.20;;
2772;SDS011;1394;47.044;15.744;2023-08-21T00:48:43;26.57;;;4.37;;
2772;SDS011;1394;47.044;15.744;2023-08-21T00:51:11;26.30;;;4.17;;
2772;SDS011;1394;47.044;15.744;2023-08-21T00:53:42;26.67;;;4.87;;
2772;SDS011;1394;47.044;15.744;2023-08-21T00:56:09;26.43;;;4.13;;
2772;SDS011;1394;47.044;15.744;2023-08-21T00:58:36;26.40;;;4.27;;
2772;SDS011;1394;47.044;15.744;2023-08-21T01:01:06;26.27;;;4.43;;
2772;SDS011;1394;47.044;15.744;2023-08-21T01:03:35;26.50;;;4.40;;
2772;SDS011;1394;47.044;15.744;2023-08-21T01:06:04;26.90;;;4.40;;
2772;SDS011;1394;47.044;15.744;2023-08-21T01:08:35;28.80;;;4.30;;
2772;SDS011;1394;47.044;15.744;2023-08-21T01:11:06;26.20;;;4.37;;
2772;SDS011;1394;47.044;15.744;2023-08-21T01:13:40;26.27;;;4.43;;
2772;SDS011;1394;47.044;15.744;2023-08-21T01:16:11;26.03;;;4.10;;
2772;SDS011;1394;47.044;15.744;2023-08-21T01:18:40;26.50;;;4.60;;
2772;SDS011;1394;47.044;15.744;2023-08-21T01:21:11;26.87;;;4.30;;
2772;SDS011;1394;47.044;15.744;2023-08-21T01:23:42;28.07;;;4.53;;
2772;SDS011;1394;47.044;15.744;2023-08-21T01:26:10;28.17;;;4.47;;
2772;SDS011;1394;47.044;15.744;2023-08-21T01:28:37;27.37;;;4.40;;
2772;SDS011;1394;47.044;15.744;2023-08-21T01:31:06;26.37;;;4.20;;
2772;SDS011;1394;47.044;15.744;2023-08-21T01:33:37;26.30;;;4.53;;
2772;SDS011;1394;47.044;15.744;2023-08-21T01:36:07;26.47;;;4.33;;
2772;SDS011;1394;47.044;15.744;2023-08-21T01:38:34;26.33;;;4.20;;
2772;SDS011;1394;47.044;15.744;2023-08-21T01:41:03;26.17;;;4.10;;
2772;SDS011;1394;47.044;15.744;2023-08-21T01:43:30;26.37;;;4.00;;
2772;SDS011;1394;47.044;15.744;2023-08-21T01:45:57;26.50;;;4.90;;
2772;SDS011;1394;47.044;15.744;2023-08-21T01:48:24;26.37;;;4.10;;
2772;SDS011;1394;47.044;15.744;2023-08-21T01:50:52;25.87;;;3.80;;
2772;SDS011;1394;47.044;15.744;2023-08-21T01:53:20;25.80;;;4.30;;
2772;SDS011;1394;47.044;15.744;2023-08-21T01:55:47;26.53;;;4.50;;
2772;SDS011;1394;47.044;15.744;2023-08-21T01:58:18;26.10;;;4.23;;
2772;SDS011;1394;47.044;15.744;2023-08-21T02:00:45;26.17;;;4.37;;
2772;SDS011;1394;47.044;15.744;2023-08-21T02:03:13;26.20;;;3.97;;
2772;SDS011;1394;47.044;15.744;2023-08-21T02:05:40;27.00;;;4.60;;
2772;SDS011;1394;47.044;15.744;2023-08-21T02:08:09;26.27;;;4.13;;
2772;SDS011;1394;47.044;15.744;2023-08-21T02:10:37;26.10;;;4.40;;
2772;SDS011;1394;47.044;15.744;2023-08-21T02:13:04;26.47;;;4.43;;
2772;SDS011;1394;47.044;15.744;2023-08-21T02:15:33;26.93;;;4.27;;
2772;SDS011;1394;47.044;15.744;2023-08-21T02:18:00;26.20;;;4.10;;
2772;SDS011;1394;47.044;15.744;2023-08-21T02:20:28;26.10;;;4.27;;
2772;SDS011;1394;47.044;15.744;2023-08-21T02:22:55;26.23;;;4.20;;
2772;SDS011;1394;47.044;15.744;2023-08-21T02:25:22;26.60;;;4.30;;
2772;SDS011;1394;47.044;15.744;2023-08-21T02:27:50;26.23;;;4.07;;
2772;SDS011;1394;47.044;15.744;2023-08-21T02:30:17;26.47;;;4.43;;
2772;SDS011;1394;47.044;15.744;2023-08-21T02:32:46;25.90;;;4.13;;
2772;SDS011;1394;47.044;15.744;2023-08-21T02:35:14;26.00;;;4.00;;
2772;SDS011;1394;47.044;15.744;2023-08-21T02:37:41;26.07;;;4.37;;
2772;SDS011;1394;47.044;15.744;2023-08-21T02:40:11;26.27;;;4.10;;
2772;SDS011;1394;47.044;15.744;2023-08-21T02:42:38;27.20;;;4.40;;
2772;SDS011;1394;47.044;15.744;2023-08-21T02:45:06;26.87;;;4.37;;
2772;SDS011;1394;47.044;15.744;2023-08-21T02:47:34;26.70;;;4.20;;
2772;SDS011;1394;47.044;15.744;2023-08-21T02:50:04;26.57;;;4.67;;
2772;SDS011;1394;47.044;15.744;2023-08-21T02:52:31;26.50;;;4.40;;
2772;SDS011;1394;47.044;15.744;2023-08-21T02:54:58;26.40;;;4.67;;
2772;SDS011;1394;47.044;15.744;2023-08-21T02:57:26;26.23;;;4.27;;
2772;SDS011;1394;47.044;15.744;2023-08-21T02:59:53;26.30;;;4.30;;
2772;SDS011;1394;47.044;15.744;2023-08-21T03:02:21;26.50;;;4.50;;
2772;SDS011;1394;47.044;15.744;2023-08-21T03:04:48;26.00;;;4.10;;
2772;SDS011;1394;47.044;15.744;2023-08-21T03:07:17;25.93;;;4.30;;
2772;SDS011;1394;47.044;15.744;2023-08-21T03:09:46;26.23;;;4.27;;
2772;SDS011;1394;47.044;15.744;2023-08-21T03:12:13;26.53;;;4.80;;
2772;SDS011;1394;47.044;15.744;2023-08-21T03:14:40;26.90;;;4.70;;
2772;SDS011;1394;47.044;15.744;2023-08-21T03:17:08;26.13;;;4.13;;
2772;SDS011;1394;47.044;15.744;2023-08-21T03:19:37;25.93;;;4.13;;
2772;SDS011;1394;47.044;15.744;2023-08-21T03:22:05;26.50;;;4.67;;
2772;SDS011;1394;47.044;15.744;2023-08-21T03:24:33;26.63;;;4.30;;
2772;SDS011;1394;47.044;15.744;2023-08-21T03:27:01;27.10;;;4.60;;
2772;SDS011;1394;47.044;15.744;2023-08-21T03:29:28;26.50;;;4.40;;
2772;SDS011;1394;47.044;15.744;2023-08-21T03:31:57;26.37;;;4.10;;
2772;SDS011;1394;47.044;15.744;2023-08-21T03:34:25;26.43;;;4.40;;
2772;SDS011;1394;47.044;15.744;2023-08-21T03:36:52;26.77;;;4.40;;
2772;SDS011;1394;47.044;15.744;2023-08-21T03:39:19;26.57;;;4.20;;
2772;SDS011;1394;47.044;15.744;2023-08-21T03:41:49;27.00;;;4.10;;
2772;SDS011;1394;47.044;15.744;2023-08-21T03:44:16;26.57;;;4.47;;
2772;SDS011;1394;47.044;15.744;2023-08-21T03:46:43;26.37;;;3.93;;
2772;SDS011;1394;47.044;15.744;2023-08-21T03:49:10;26.00;;;4.60;;
2772;SDS011;1394;47.044;15.744;2023-08-21T03:51:38;26.00;;;4.20;;
2772;SDS011;1394;47.044;15.744;2023-08-21T03:54:05;26.20;;;4.47;;
2772;SDS011;1394;47.044;15.744;2023-08-21T03:56:32;27.17;;;5.10;;
2772;SDS011;1394;47.044;15.744;2023-08-21T03:59:01;26.00;;;4.43;;
2772;SDS011;1394;47.044;15.744;2023-08-21T04:01:28;26.87;;;5.00;;
2772;SDS011;1394;47.044;15.744;2023-08-21T04:03:55;27.10;;;4.33;;
2772;SDS011;1394;47.044;15.744;2023-08-21T04:06:22;26.57;;;5.10;;
2772;SDS011;1394;47.044;15.744;2023-08-21T04:08:49;27.37;;;4.67;;
2772;SDS011;1394;47.044;15.744;2023-08-21T04:11:18;25.60;;;4.00;;
2772;SDS011;1394;47.044;15.744;2023-08-21T04:13:48;26.27;;;4.50;;
2772;SDS011;1394;47.044;15.744;2023-08-21T04:16:17;26.73;;;4.80;;
2772;SDS011;1394;47.044;15.744;2023-08-21T04:18:46;26.47;;;4.60;;
2772;SDS011;1394;47.044;15.744;2023-08-21T04:21:13;27.57;;;4.53;;
2772;SDS011;1394;47.044;15.744;2023-08-21T04:23:43;25.70;;;3.90;;
2772;SDS011;1394;47.044;15.744;2023-08-21T04:26:12;26.67;;;4.70;;
2772;SDS011;1394;47.044;15.744;2023-08-21T04:28:40;26.70;;;4.60;;
2772;SDS011;1394;47.044;15.744;2023-08-21T04:31:10;27.80;;;4.53;;
2772;SDS011;1394;47.044;15.744;2023-08-21T04:33:38;26.87;;;5.10;;
2772;SDS011;1394;47.044;15.744;2023-08-21T04:36:06;25.87;;;4.00;;
2772;SDS011;1394;47.044;15.744;2023-08-21T04:38:33;26.00;;;4.30;;
2772;SDS011;1394;47.044;15.744;2023-08-21T04:41:06;26.70;;;4.83;;
2772;SDS011;1394;47.044;15.744;2023-08-21T04:43:34;25.90;;;4.30;;
2772;SDS011;1394;47.044;15.744;2023-08-21T04:46:01;25.90;;;4.10;;
2772;SDS011;1394;47.044;15.744;2023-08-21T04:48:28;27.00;;;4.30;;
2772;SDS011;1394;47.044;15.744;2023-08-21T04:50:58;26.53;;;3.90;;
2772;SDS011;1394;47.044;15.744;2023-08-21T04:53:25;25.97;;;3.73;;
2772;SDS011;1394;47.044;15.744;2023-08-21T04:55:52;25.80;;;4.00;;
2772;SDS011;1394;47.044;15.744;2023-08-21T04:58:19;26.10;;;4.20;;
2772;SDS011;1394;47.044;15.744;2023-08-21T05:00:49;26.50;;;4.30;;
2772;SDS011;1394;47.044;15.744;2023-08-21T05:03:19;26.60;;;4.50;;
2772;SDS011;1394;47.044;15.744;2023-08-21T05:05:52;26.63;;;4.43;;
2772;SDS011;1394;47.044;15.744;2023-08-21T05:08:21;26.07;;;4.17;;
2772;SDS011;1394;47.044;15.744;2023-08-21T05:10:48;25.70;;;4.40;;
2772;SDS011;1394;47.044;15.744;2023-08-21T05:13:15;26.00;;;4.10;;
2772;SDS011;1394;47.044;15.744;2023-08-21T05:15:43;26.83;;;4.87;;
2772;SDS011;1394;47.044;15.744;2023-08-21T05:18:10;26.63;;;3.93;;
2772;SDS011;1394;47.044;15.744;2023-08-21T05:20:38;26.03;;;4.30;;
2772;SDS011;1394;47.044;15.744;2023-08-21T05:23:05;25.93;;;3.97;;
2772;SDS011;1394;47.044;15.744;2023-08-21T05:25:34;25.87;;;3.80;;
2772;SDS011;1394;47.044;15.744;2023-08-21T05:28:01;26.10;;;3.90;;
2772;SDS011;1394;47.044;15.744;2023-08-21T05:30:30;26.10;;;3.97;;
2772;SDS011;1394;47.044;15.744;2023-08-21T05:33:03;26.63;;;4.00;;
2772;SDS011;1394;47.044;15.744;2023-08-21T05:35:32;26.07;;;4.20;;
2772;SDS011;1394;47.044;15.744;2023-08-21T05:38:03;26.10;;;4.00;;
2772;SDS011;1394;47.044;15.744;2023-08-21T05:40:30;27.60;;;4.20;;
2772;SDS011;1394;47.044;15.744;2023-08-21T05:43:01;26.20;;;4.10;;
2772;SDS011;1394;47.044;15.744;2023-08-21T05:45:29;26.50;;;4.27;;
2772;SDS011;1394;47.044;15.744;2023-08-21T05:47:57;26.17;;;3.73;;
2772;SDS011;1394;47.044;15.744;2023-08-21T05:50:24;25.90;;;3.70;;
2772;SDS011;1394;47.044;15.744;2023-08-21T05:52:51;26.87;;;3.60;;
2772;SDS011;1394;47.044;15.744;2023-08-21T05:55:23;26.00;;;4.00;;
2772;SDS011;1394;47.044;15.744;2023-08-21T05:57:50;27.60;;;4.20;;
2772;SDS011;1394;47.044;15.744;2023-08-21T06:00:19;26.90;;;4.43;;
2772;SDS011;1394;47.044;15.744;2023-08-21T06:02:46;26.20;;;3.60;;
2772;SDS011;1394;47.044;15.744;2023-08-21T06:05:15;28.13;;;3.90;;
2772;SDS011;1394;47.044;15.744;2023-08-21T06:07:42;27.27;;;4.10;;
2772;SDS011;1394;47.044;15.744;2023-08-21T06:10:10;25.73;;;3.60;;
2772;SDS011;1394;47.044;15.744;2023-08-21T06:12:40;26.67;;;3.67;;
2772;SDS011;1394;47.044;15.744;2023-08-21T06:15:10;26.47;;;3.87;;
2772;SDS011;1394;47.044;15.744;2023-08-21T06:17:39;26.10;;;3.57;;
2772;SDS011;1394;47.044;15.744;2023-08-21T06:20:07;25.87;;;3.30;;
2772;SDS011;1394;47.044;15.744;2023-08-21T06:22:34;27.20;;;3.67;;
2772;SDS011;1394;47.044;15.744;2023-08-21T06:25:02;26.83;;;3.80;;
2772;SDS011;1394;47.044;15.744;2023-08-21T06:27:29;26.27;;;3.70;;
2772;SDS011;1394;47.044;15.744;2023-08-21T06:29:56;27.50;;;3.77;;
2772;SDS011;1394;47.044;15.744;2023-08-21T06:32:25;26.67;;;3.60;;
2772;SDS011;1394;47.044;15.744;2023-08-21T06:34:55;26.07;;;3.33;;
2772;SDS011;1394;47.044;15.744;2023-08-21T06:37:23;27.03;;;3.67;;
2772;SDS011;1394;47.044;15.744;2023-08-21T06:39:50;26.43;;;3.30;;
2772;SDS011;1394;47.044;15.744;2023-08-21T06:42:20;25.87;;;3.20;;
2772;SDS011;1394;47.044;15.744;2023-08-21T06:44:47;26.00;;;3.23;;
2772;SDS011;1394;47.044;15.744;2023-08-21T06:47:14;26.67;;;3.37;;
2772;SDS011;1394;47.044;15.744;2023-08-21T06:49:42;26.87;;;3.30;;
2772;SDS011;1394;47.044;15.744;2023-08-21T06:52:11;25.73;;;3.40;;
2772;SDS011;1394;47.044;15.744;2023-08-21T06:54:40;25.83;;;3.03;;
2772;SDS011;1394;47.044;15.744;2023-08-21T06:57:07;26.07;;;3.07;;
2772;SDS011;1394;47.044;15.744;2023-08-21T06:59:34;25.67;;;2.97;;
2772;SDS011;1394;47.044;15.744;2023-08-21T07:02:01;27.30;;;3.30;;
2772;SDS011;1394;47.044;15.744;2023-08-21T07:04:29;26.07;;;2.97;;
2772;SDS011;1394;47.044;15.744;2023-08-21T07:06:58;25.87;;;3.23;;
2772;SDS011;1394;47.044;15.744;2023-08-21T07:09:27;25.90;;;2.80;;
2772;SDS011;1394;47.044;15.744;2023-08-21T07:11:55;25.43;;;3.03;;
2772;SDS011;1394;47.044;15.744;2023-08-21T07:14:26;26.57;;;3.30;;
2772;SDS011;1394;47.044;15.744;2023-08-21T07:16:54;26.27;;;3.10;;
2772;SDS011;1394;47.044;15.744;2023-08-21T07:19:21;26.17;;;3.00;;
2772;SDS011;1394;47.044;15.744;2023-08-21T07:21:50;25.63;;;3.07;;
2772;SDS011;1394;47.044;15.744;2023-08-21T07:24:19;25.30;;;2.70;;
2772;SDS011;1394;47.044;15.744;2023-08-21T07:26:48;25.40;;;2.77;;
2772;SDS011;1394;47.044;15.744;2023-08-21T07:29:15;25.77;;;2.83;;
2772;SDS011;1394;47.044;15.744;2023-08-21T07:31:42;25.40;;;2.70;;
2772;SDS011;1394;47.044;15.744;2023-08-21T07:34:09;25.80;;;2.70;;
2772;SDS011;1394;47.044;15.744;2023-08-21T07:36:36;25.20;;;2.77;;
2772;SDS011;1394;47.044;15.744;2023-08-21T07:39:04;26.47;;;2.70;;
2772;SDS011;1394;47.044;15.744;2023-08-21T07:41:31;25.73;;;2.50;;
2772;SDS011;1394;47.044;15.744;2023-08-21T07:44:02;25.50;;;2.67;;
2772;SDS011;1394;47.044;15.744;2023-08-21T07:46:30;24.90;;;2.60;;
2772;SDS011;1394;47.044;15.744;2023-08-21T07:48:57;25.30;;;2.30;;
2772;SDS011;1394;47.044;15.744;2023-08-21T07:51:25;25.20;;;2.70;;
2772;SDS011;1394;47.044;15.744;2023-08-21T07:53:52;26.00;;;2.57;;
2772;SDS011;1394;47.044;15.744;2023-08-21T07:56:20;25.00;;;2.50;;
2772;SDS011;1394;47.044;15.744;2023-08-21T07:58:48;24.80;;;2.50;;
2772;SDS011;1394;47.044;15.744;2023-08-21T08:01:16;25.33;;;2.87;;
2772;SDS011;1394;47.044;15.744;2023-08-21T08:03:45;25.30;;;2.90;;
2772;SDS011;1394;47.044;15.744;2023-08-21T08:06:14;25.13;;;2.60;;
2772;SDS011;1394;47.044;15.744;2023-08-21T08:08:41;25.87;;;2.50;;
2772;SDS011;1394;47.044;15.744;2023-08-21T08:11:11;25.53;;;2.63;;
2772;SDS011;1394;47.044;15.744;2023-08-21T08:13:40;24.90;;;2.60;;
2772;SDS011;1394;47.044;15.744;2023-08-21T08:16:07;25.27;;;2.90;;
2772;SDS011;1394;47.044;15.744;2023-08-21T08:18:36;25.47;;;2.57;;
2772;SDS011;1394;47.044;15.744;2023-08-21T08:21:03;25.27;;;2.60;;
2772;SDS011;1394;47.044;15.744;2023-08-21T08:23:30;25.13;;;2.73;;
2772;SDS011;1394;47.044;15.744;2023-08-21T08:25:58;24.70;;;2.90;;
2772;SDS011;1394;47.044;15.744;2023-08-21T08:28:25;25.43;;;2.30;;
2772;SDS011;1394;47.044;15.744;2023-08-21T08:30:52;25.43;;;2.80;;
2772;SDS011;1394;47.044;15.744;2023-08-21T08:33:22;25.50;;;2.20;;
2772;SDS011;1394;47.044;15.744;2023-08-21T08:35:54;24.73;;;2.40;;
2772;SDS011;1394;47.044;15.744;2023-08-21T08:38:21;24.77;;;2.37;;
2772;SDS011;1394;47.044;15.744;2023-08-21T08:40:48;25.90;;;2.47;;
2772;SDS011;1394;47.044;15.744;2023-08-21T08:43:16;24.90;;;2.20;;
2772;SDS011;1394;47.044;15.744;2023-08-21T08:45:44;24.90;;;2.20;;
2772;SDS011;1394;47.044;15.744;2023-08-21T08:48:11;24.67;;;2.13;;
2772;SDS011;1394;47.044;15.744;2023-08-21T08:50:41;24.10;;;1.97;;
2772;SDS011;1394;47.044;15.744;2023-08-21T08:53:16;24.97;;;2.03;;
2772;SDS011;1394;47.044;15.744;2023-08-21T08:55:44;24.50;;;1.70;;
2772;SDS011;1394;47.044;15.744;2023-08-21T08:58:11;24.20;;;1.60;;
2772;SDS011;1394;47.044;15.744;2023-08-21T09:00:41;25.17;;;1.90;;
2772;SDS011;1394;47.044;15.744;2023-08-21T09:03:08;24.00;;;1.67;;
2772;SDS011;1394;47.044;15.744;2023-08-21T09:05:37;24.37;;;1.83;;
2772;SDS011;1394;47.044;15.744;2023-08-21T09:08:09;24.50;;;1.80;;
2772;SDS011;1394;47.044;15.744;2023-08-21T09:10:38;24.33;;;1.50;;
2772;SDS011;1394;47.044;15.744;2023-08-21T09:13:10;24.20;;;1.50;;
2772;SDS011;1394;47.044;15.744;2023-08-21T09:15:37;24.10;;;1.50;;
2772;SDS011;1394;47.044;15.744;2023-08-21T09:18:07;25.83;;;1.90;;
2772;SDS011;1394;47.044;15.744;2023-08-21T09:20:35;24.80;;;1.60;;
2772;SDS011;1394;47.044;15.744;2023-08-21T09:23:02;24.23;;;1.60;;
2772;SDS011;1394;47.044;15.744;2023-08-21T09:25:33;24.20;;;1.50;;
2772;SDS011;1394;47.044;15.744;2023-08-21T09:28:05;25.80;;;1.80;;
2772;SDS011;1394;47.044;15.744;2023-08-21T09:30:45;24.90;;;1.60;;
2772;SDS011;1394;47.044;15.744;2023-08-21T09:33:21;24.77;;;1.70;;
2772;SDS011;1394;47.044;15.744;2023-08-21T09:35:52;24.37;;;1.73;;
2772;SDS011;1394;47.044;15.744;2023-08-21T09:38:21;25.00;;;1.70;;
2772;SDS011;1394;47.044;15.744;2023-08-21T09:40:52;25.00;;;1.63;;
2772;SDS011;1394;47.044;15.744;2023-08-21T09:43:23;24.30;;;1.60;;
2772;SDS011;1394;47.044;15.744;2023-08-21T09:45:53;24.33;;;1.83;;
2772;SDS011;1394;47.044;15.744;2023-08-21T09:48:23;25.30;;;1.80;;
2772;SDS011;1394;47.044;15.744;2023-08-21T09:50:53;24.33;;;1.73;;
2772;SDS011;1394;47.044;15.744;2023-08-21T09:53:20;24.27;;;1.87;;
2772;SDS011;1394;47.044;15.744;2023-08-21T09:55:48;24.10;;;1.73;;
2772;SDS011;1394;47.044;15.744;2023-08-21T09:58:16;23.83;;;1.50;;
2772;SDS011;1394;47.044;15.744;2023-08-21T10:00:45;25.60;;;1.73;;
2772;SDS011;1394;47.044;15.744;2023-08-21T10:03:13;24.77;;;1.90;;
2772;SDS011;1394;47.044;15.744;2023-08-21T10:05:41;23.80;;;1.90;;
2772;SDS011;1394;47.044;15.744;2023-08-21T10:08:09;24.73;;;1.70;;
2772;SDS011;1394;47.044;15.744;2023-08-21T10:10:37;25.10;;;1.70;;
2772;SDS011;1394;47.044;15.744;2023-08-21T10:13:04;23.90;;;1.77;;
2772;SDS011;1394;47.044;15.744;2023-08-21T10:15:32;24.37;;;1.73;;
2772;SDS011;1394;47.044;15.744;2023-08-21T10:20:58;24.20;;;1.70;;
2772;SDS011;1394;47.044;15.744;2023-08-21T10:23:37;23.90;;;1.40;;
2772;SDS011;1394;47.044;15.744;2023-08-21T10:26:05;24.80;;;1.90;;
2772;SDS011;1394;47.044;15.744;2023-08-21T10:28:49;25.50;;;1.70;;
2772;SDS011;1394;47.044;15.744;2023-08-21T10:31:27;23.90;;;1.80;;
2772;SDS011;1394;47.044;15.744;2023-08-21T10:33:56;23.90;;;1.50;;
2772;SDS011;1394;47.044;15.744;2023-08-21T10:37:01;23.83;;;1.53;;
2772;SDS011;1394;47.044;15.744;2023-08-21T10:39:28;23.93;;;1.60;;
2772;SDS011;1394;47.044;15.744;2023-08-21T10:41:57;24.93;;;1.80;;
2772;SDS011;1394;47.044;15.744;2023-08-21T10:47:14;23.80;;;1.60;;
2772;SDS011;1394;47.044;15.744;2023-08-21T10:49:43;24.00;;;1.50;;
2772;SDS011;1394;47.044;15.744;2023-08-21T10:52:15;24.27;;;1.70;;
2772;SDS011;1394;47.044;15.744;2023-08-21T10:54:49;23.92;;;1.85;;
2772;SDS011;1394;47.044;15.744;2023-08-21T10:57:18;24.52;;;1.60;;
2772;SDS011;1394;47.044;15.744;2023-08-21T10:59:49;23.85;;;1.33;;
2772;SDS011;1394;47.044;15.744;2023-08-21T11:02:16;25.45;;;1.70;;
2772;SDS011;1394;47.044;15.744;2023-08-21T11:04:44;23.80;;;1.50;;
2772;SDS011;1394;47.044;15.744;2023-08-21T11:07:12;23.98;;;1.40;;
2772;SDS011;1394;47.044;15.744;2023-08-21T11:09:41;23.65;;;1.40;;
2772;SDS011;1394;47.044;15.744;2023-08-21T11:12:08;24.13;;;1.58;;
2772;SDS011;1394;47.044;15.744;2023-08-21T11:14:37;23.60;;;1.33;;
2772;SDS011;1394;47.044;15.744;2023-08-21T11:17:05;23.75;;;1.48;;
2772;SDS011;1394;47.044;15.744;2023-08-21T11:19:33;23.65;;;1.50;;
2772;SDS011;1394;47.044;15.744;2023-08-21T11:22:01;24.10;;;1.30;;
2772;SDS011;1394;47.044;15.744;2023-08-21T11:24:39;23.85;;;1.30;;
2772;SDS011;1394;47.044;15.744;2023-08-21T11:27:09;23.52;;;1.48;;
2772;SDS011;1394;47.044;15.744;2023-08-21T11:29:37;24.67;;;1.70;;
2772;SDS011;1394;47.044;15.744;2023-08-21T11:32:07;23.55;;;1.40;;
2772;SDS011;1394;47.044;15.744;2023-08-21T11:34:35;24.35;;;1.55;;
2772;SDS011;1394;47.044;15.744;2023-08-21T11:37:04;24.35;;;1.42;;
2772;SDS011;1394;47.044;15.744;2023-08-21T11:39:39;24.08;;;1.40;;
2772;SDS011;1394;47.044;15.744;2023-08-21T11:42:09;26.42;;;1.60;;
2772;SDS011;1394;47.044;15.744;2023-08-21T11:44:44;24.70;;;1.30;;
2772;SDS011;1394;47.044;15.744;2023-08-21T11:47:15;23.75;;;1.50;;
2772;SDS011;1394;47.044;15.744;2023-08-21T11:49:45;24.13;;;1.20;;
2772;SDS011;1394;47.044;15.744;2023-08-21T11:52:17;23.85;;;1.40;;
2772;SDS011;1394;47.044;15.744;2023-08-21T11:54:46;23.83;;;1.40;;
2772;SDS011;1394;47.044;15.744;2023-08-21T11:57:15;23.88;;;1.25;;
2772;SDS011;1394;47.044;15.744;2023-08-21T11:59:48;23.50;;;1.40;;
2772;SDS011;1394;47.044;15.744;2023-08-21T12:02:16;23.83;;;1.30;;
2772;SDS011;1394;47.044;15.744;2023-08-21T12:04:44;23.45;;;1.30;;
2772;SDS011;1394;47.044;15.744;2023-08-21T12:07:13;25.85;;;1.40;;
2772;SDS011;1394;47.044;15.744;2023-08-21T12:09:47;23.73;;;1.42;;
2772;SDS011;1394;47.044;15.744;2023-08-21T12:12:16;23.63;;;1.40;;
2772;SDS011;1394;47.044;15.744;2023-08-21T12:14:43;23.42;;;1.40;;
2772;SDS011;1394;47.044;15.744;2023-08-21T12:17:11;23.85;;;1.30;;
2772;SDS011;1394;47.044;15.744;2023-08-21T12:19:38;23.15;;;1.30;;
2772;SDS011;1394;47.044;15.744;2023-08-21T12:22:08;23.83;;;1.80;;
2772;SDS011;1394;47.044;15.744;2023-08-21T12:24:35;24.00;;;1.30;;
2772;SDS011;1394;47.044;15.744;2023-08-21T12:27:04;23.35;;;1.55;;
2772;SDS011;1394;47.044;15.744;2023-08-21T12:29:35;23.73;;;1.50;;
2772;SDS011;1394;47.044;15.744;2023-08-21T12:32:03;24.13;;;1.40;;
2772;SDS011;1394;47.044;15.744;2023-08-21T12:34:30;23.80;;;1.30;;
2772;SDS011;1394;47.044;15.744;2023-08-21T12:36:58;23.15;;;1.20;;
2772;SDS011;1394;47.044;15.744;2023-08-21T12:39:25;22.95;;;1.15;;
2772;SDS011;1394;47.044;15.744;2023-08-21T12:41:53;24.17;;;1.42;;
2772;SDS011;1394;47.044;15.744;2023-08-21T12:44:20;23.48;;;1.20;;
2772;SDS011;1394;47.044;15.744;2023-08-21T12:46:49;23.15;;;1.40;;
2772;SDS011;1394;47.044;15.744;2023-08-21T12:49:17;23.08;;;1.30;;
2772;SDS011;1394;47.044;15.744;2023-08-21T12:51:44;23.15;;;1.38;;
2772;SDS011;1394;47.044;15.744;2023-08-21T12:54:12;23.25;;;1.38;;
2772;SDS011;1394;47.044;15.744;2023-08-21T12:56:39;25.25;;;1.38;;
2772;SDS011;1394;47.044;15.744;2023-08-21T12:59:07;23.20;;;1.40;;
2772;SDS011;1394;47.044;15.744;2023-08-21T13:01:34;22.75;;;1.30;;
2772;SDS011;1394;47.044;15.744;2023-08-21T13:04:05;22.98;;;1.23;;
2772;SDS011;1394;47.044;15.744;2023-08-21T13:06:34;23.23;;;1.20;;
2772;SDS011;1394;47.044;15.744;2023-08-21T13:09:02;23.05;;;1.35;;
2772;SDS011;1394;47.044;15.744;2023-08-21T13:11:30;23.05;;;1.23;;
2772;SDS011;1394;47.044;15.744;2023-08-21T13:13:58;24.38;;;1.55;;
2772;SDS011;1394;47.044;15.744;2023-08-21T13:16:25;22.80;;;1.13;;
2772;SDS011;1394;47.044;15.744;2023-08-21T13:18:54;22.75;;;1.20;;
2772;SDS011;1394;47.044;15.744;2023-08-21T13:21:23;22.85;;;1.20;;
2772;SDS011;1394;47.044;15.744;2023-08-21T13:23:50;22.95;;;1.40;;
2772;SDS011;1394;47.044;15.744;2023-08-21T13:26:17;22.75;;;1.20;;
2772;SDS011;1394;47.044;15.744;2023-08-21T13:28:48;22.80;;;1.15;;
2772;SDS011;1394;47.044;15.744;2023-08-21T13:31:15;22.55;;;1.20;;
2772;SDS011;1394;47.044;15.744;2023-08-21T13:33:44;22.95;;;1.27;;
2772;SDS011;1394;47.044;15.744;2023-08-21T13:36:12;22.65;;;1.30;;
2772;SDS011;1394;47.044;15.744;2023-08-21T13:38:40;22.85;;;1.17;;
2772;SDS011;1394;47.044;15.744;2023-08-21T13:41:08;22.95;;;1.20;;
2772;SDS011;1394;47.044;15.744;2023-08-21T13:43:36;23.17;;;1.30;;
2772;SDS011;1394;47.044;15.744;2023-08-21T13:46:05;22.88;;;1.20;;
2772;SDS011;1394;47.044;15.744;2023-08-21T13:48:35;22.95;;;1.30;;
2772;SDS011;1394;47.044;15.744;2023-08-21T13:51:03;23.17;;;1.25;;
2772;SDS011;1394;47.044;15.744;2023-08-21T13:53:30;22.65;;;1.20;;
2772;SDS011;1394;47.044;15.744;2023-08-21T13:55:58;24.17;;;1.60;;
2772;SDS011;1394;47.044;15.744;2023-08-21T13:58:25;22.85;;;1.20;;
2772;SDS011;1394;47.044;15.744;2023-08-21T14:00:55;22.85;;;1.27;;
2772;SDS011;1394;47.044;15.744;2023-08-21T14:03:23;25.30;;;1.45;;
2772;SDS011;1394;47.044;15.744;2023-08-21T14:05:50;22.63;;;1.33;;
2772;SDS011;1394;47.044;15.744;2023-08-21T14:08:18;22.35;;;1.10;;
2772;SDS011;1394;47.044;15.744;2023-08-21T14:10:46;23.70;;;1.30;;
2772;SDS011;1394;47.044;15.744;2023-08-21T14:13:16;23.35;;;1.20;;
2772;SDS011;1394;47.044;15.744;2023-08-21T14:15:45;22.73;;;1.20;;
2772;SDS011;1394;47.044;15.744;2023-08-21T14:18:15;23.10;;;1.23;;
2772;SDS011;1394;47.044;15.744;2023-08-21T14:20:42;22.65;;;1.30;;
2772;SDS011;1394;47.044;15.744;2023-08-21T14:23:09;22.65;;;1.17;;
2772;SDS011;1394;47.044;15.744;2023-08-21T14:25:36;22.65;;;1.30;;
2772;SDS011;1394;47.044;15.744;2023-08-21T14:28:06;23.52;;;1.48;;
2772;SDS011;1394;47.044;15.744;2023-08-21T14:30:36;22.70;;;1.20;;
2772;SDS011;1394;47.044;15.744;2023-08-21T14:33:06;22.70;;;1.20;;
2772;SDS011;1394;47.044;15.744;2023-08-21T14:35:36;22.73;;;1.17;;
2772;SDS011;1394;47.044;15.744;2023-08-21T14:38:04;22.80;;;1.27;;
2772;SDS011;1394;47.044;15.744;2023-08-21T14:40:32;22.65;;;1.40;;
2772;SDS011;1394;47.044;15.744;2023-08-21T14:42:59;22.67;;;1.30;;
2772;SDS011;1394;47.044;15.744;2023-08-21T14:45:26;22.45;;;1.10;;
2772;SDS011;1394;47.044;15.744;2023-08-21T14:47:55;22.63;;;1.30;;
2772;SDS011;1394;47.044;15.744;2023-08-21T14:50:22;23.50;;;1.00;;
2772;SDS011;1394;47.044;15.744;2023-08-21T14:52:49;22.70;;;1.20;;
2772;SDS011;1394;47.044;15.744;2023-08-21T14:55:17;22.90;;;1.30;;
2772;SDS011;1394;47.044;15.744;2023-08-21T14:57:49;22.55;;;1.10;;
2772;SDS011;1394;47.044;15.744;2023-08-21T15:00:16;24.58;;;1.30;;
2772;SDS011;1394;47.044;15.744;2023-08-21T15:02:46;22.42;;;1.10;;